sensor_id;sensor_type;location;lat;lon;timestamp;pressure;altitude;pressure_sealevel;temperature;humidity
24486;BME280;13449;49.374;8.584;2023-03-24T00:01:56;99591.38;;;13.97;100.00
24486;BME280;13449;49.374;8.584;2023-03-24T00:04:22;99588.28;;;14.00;100.00
24486;BME280;13449;49.374;8.584;2023-03-24T00:06:50;99584.47;;;13.96;100.00
24486;BME280;13449;49.374;8.584;2023-03-24T00:09:19;99579.25;;;13.89;100.00
24486;BME280;13449;49.374;8.584;2023-03-24T00:11:45;99579.63;;;13.93;100.00
24486;BME280;13449;49.374;8.584;2023-03-24T00:14:12;99580.66;;;13.92;100.00
24486;BME280;13449;49.374;8.584;2023-03-24T00:16:39;99573.50;;;13.92;100.00
24486;BME280;13449;49.374;8.584;2023-03-24T00:19:09;99577.34;;;13.96;100.00
24486;BME280;13449;49.374;8.584;2023-03-24T00:21:36;99569.69;;;13.88;100.00
24486;BME280;13449;49.374;8.584;2023-03-24T00:24:03;99564.69;;;13.98;100.00
24486;BME280;13449;49.374;8.584;2023-03-24T00:26:30;99555.19;;;14.09;100.00
24486;BME280;13449;49.374;8.584;2023-03-24T00:29:03;99551.97;;;13.89;100.00
24486;BME280;13449;49.374;8.584;2023-03-24T00:31:30;99548.13;;;14.03;100.00
24486;BME280;13449;49.374;8.584;2023-03-24T00:33:59;99538.59;;;14.02;100.00
24486;BME280;13449;49.374;8.584;2023-03-24T00:36:28;99530.78;;;13.89;100.00
24486;BME280;13449;49.374;8.584;2023-03-24T00:38:58;99528.41;;;13.80;100.00
24486;BME280;13449;49.374;8.584;2023-03-24T00:41:24;99516.06;;;13.74;100.00
24486;BME280;13449;49.374;8.584;2023-03-24T00:44:01;99514.38;;;13.80;100.00
24486;BME280;13449;49.374;8.584;2023-03-24T00:46:31;99505.69;;;13.73;100.00
24486;BME280;13449;49.374;8.584;2023-03-24T00:49:02;99498.19;;;13.70;100.00
24486;BME280;13449;49.374;8.584;2023-03-24T00:51:31;99494.31;;;13.72;100.00
24486;BME280;13449;49.374;8.584;2023-03-24T00:54:00;99480.41;;;13.77;100.00
24486;BME280;13449;49.374;8.584;2023-03-24T00:56:29;99486.72;;;13.76;100.00
24486;BME280;13449;49.374;8.584;2023-03-24T00:58:56;99476.94;;;13.76;100.00
24486;BME280;13449;49.374;8.584;2023-03-24T01:01:24;99480.84;;;13.74;100.00
24486;BME280;13449;49.374;8.584;2023-03-24T01:03:51;99477.09;;;13.82;100.00
24486;BME280;13449;49.374;8.584;2023-03-24T01:06:18;99477.56;;;13.78;100.00
24486;BME280;13449;49.374;8.584;2023-03-24T01:08:48;99476.34;;;13.74;100.00
24486;BME280;13449;49.374;8.584;2023-03-24T01:11:20;99479.00;;;13.74;100.00
24486;BME280;13449;49.374;8.584;2023-03-24T01:13:49;99482.84;;;13.78;100.00
24486;BME280;13449;49.374;8.584;2023-03-24T01:16:16;99484.38;;;13.86;100.00
24486;BME280;13449;49.374;8.584;2023-03-24T01:18:43;99469.28;;;13.87;100.00
24486;BME280;13449;49.374;8.584;2023-03-24T01:21:10;99471.66;;;13.95;100.00
24486;BME280;13449;49.374;8.584;2023-03-24T01:23:41;99469.06;;;14.07;100.00
24486;BME280;13449;49.374;8.584;2023-03-24T01:26:08;99469.06;;;14.07;100.00
24486;BME280;13449;49.374;8.584;2023-03-24T01:28:36;99462.75;;;13.89;100.00
24486;BME280;13449;49.374;8.584;2023-03-24T01:31:10;99460.63;;;13.98;100.00
24486;BME280;13449;49.374;8.584;2023-03-24T01:33:37;99459.00;;;13.97;100.00
24486;BME280;13449;49.374;8.584;2023-03-24T01:36:05;99449.75;;;13.88;100.00
24486;BME280;13449;49.374;8.584;2023-03-24T01:38:32;99452.69;;;13.98;100.00
24486;BME280;13449;49.374;8.584;2023-03-24T01:40:59;99454.06;;;14.00;100.00
24486;BME280;13449;49.374;8.584;2023-03-24T01:43:28;99452.88;;;14.15;100.00
24486;BME280;13449;49.374;8.584;2023-03-24T01:46:20;99451.91;;;14.27;100.00
24486;BME280;13449;49.374;8.584;2023-03-24T01:48:59;99448.13;;;14.35;100.00
24486;BME280;13449;49.374;8.584;2023-03-24T01:51:39;99446.63;;;14.39;100.00
24486;BME280;13449;49.374;8.584;2023-03-24T01:56:42;99436.16;;;14.44;100.00
24486;BME280;13449;49.374;8.584;2023-03-24T01:59:12;99443.06;;;14.45;100.00
24486;BME280;13449;49.374;8.584;2023-03-24T02:01:43;99438.31;;;14.54;100.00
24486;BME280;13449;49.374;8.584;2023-03-24T02:04:10;99442.69;;;14.60;100.00
24486;BME280;13449;49.374;8.584;2023-03-24T02:06:40;99444.41;;;14.55;100.00
24486;BME280;13449;49.374;8.584;2023-03-24T02:09:11;99443.59;;;14.54;100.00
24486;BME280;13449;49.374;8.584;2023-03-24T02:11:39;99436.75;;;14.46;100.00
24486;BME280;13449;49.374;8.584;2023-03-24T02:14:08;99439.38;;;14.35;100.00
24486;BME280;13449;49.374;8.584;2023-03-24T02:34:14;99428.84;;;14.28;100.00
24486;BME280;13449;49.374;8.584;2023-03-24T02:39:51;99428.72;;;14.23;100.00
24486;BME280;13449;49.374;8.584;2023-03-24T02:45:26;99404.13;;;14.34;100.00
24486;BME280;13449;49.374;8.584;2023-03-24T02:48:22;99408.19;;;14.48;100.00
24486;BME280;13449;49.374;8.584;2023-03-24T02:54:10;99412.91;;;14.46;100.00
24486;BME280;13449;49.374;8.584;2023-03-24T02:56:38;99409.53;;;14.39;100.00
24486;BME280;13449;49.374;8.584;2023-03-24T02:59:16;99405.31;;;14.50;100.00
24486;BME280;13449;49.374;8.584;2023-03-24T03:01:47;99396.34;;;14.51;100.00
24486;BME280;13449;49.374;8.584;2023-03-24T03:04:24;99394.19;;;14.60;100.00
24486;BME280;13449;49.374;8.584;2023-03-24T03:06:56;99386.91;;;14.55;100.00
24486;BME280;13449;49.374;8.584;2023-03-24T03:09:30;99401.03;;;14.49;100.00
24486;BME280;13449;49.374;8.584;2023-03-24T03:12:03;99380.88;;;14.48;100.00
24486;BME280;13449;49.374;8.584;2023-03-24T03:14:40;99380.25;;;14.64;100.00
24486;BME280;13449;49.374;8.584;2023-03-24T03:19:53;99370.13;;;14.73;100.00
24486;BME280;13449;49.374;8.584;2023-03-24T03:22:24;99381.19;;;14.82;100.00
24486;BME280;13449;49.374;8.584;2023-03-24T03:24:53;99381.84;;;14.65;100.00
24486;BME280;13449;49.374;8.584;2023-03-24T03:27:32;99396.50;;;14.56;100.00
24486;BME280;13449;49.374;8.584;2023-03-24T03:30:48;99400.28;;;14.60;100.00
24486;BME280;13449;49.374;8.584;2023-03-24T03:32:56;99401.09;;;14.61;100.00
24486;BME280;13449;49.374;8.584;2023-03-24T03:35:32;99404.59;;;14.73;100.00
24486;BME280;13449;49.374;8.584;2023-03-24T03:38:22;99417.25;;;14.59;100.00
24486;BME280;13449;49.374;8.584;2023-03-24T03:40:55;99429.66;;;14.59;100.00
24486;BME280;13449;49.374;8.584;2023-03-24T03:43:26;99442.56;;;14.55;100.00
24486;BME280;13449;49.374;8.584;2023-03-24T03:45:53;99434.13;;;14.46;100.00
24486;BME280;13449;49.374;8.584;2023-03-24T03:48:21;99430.50;;;14.41;100.00
24486;BME280;13449;49.374;8.584;2023-03-24T03:50:47;99445.03;;;14.38;100.00
24486;BME280;13449;49.374;8.584;2023-03-24T03:53:37;99443.38;;;14.56;100.00
24486;BME280;13449;49.374;8.584;2023-03-24T03:56:05;99440.78;;;14.49;100.00
24486;BME280;13449;49.374;8.584;2023-03-24T03:58:33;99438.59;;;14.46;100.00
24486;BME280;13449;49.374;8.584;2023-03-24T04:01:02;99438.09;;;14.67;100.00
24486;BME280;13449;49.374;8.584;2023-03-24T04:03:50;99455.25;;;14.35;100.00
24486;BME280;13449;49.374;8.584;2023-03-24T04:20:09;99470.19;;;14.89;100.00
24486;BME280;13449;49.374;8.584;2023-03-24T04:25:30;99478.38;;;14.88;100.00
24486;BME280;13449;49.374;8.584;2023-03-24T04:28:06;99495.97;;;14.70;100.00
24486;BME280;13449;49.374;8.584;2023-03-24T04:30:43;99496.09;;;14.76;100.00
24486;BME280;13449;49.374;8.584;2023-03-24T04:33:18;99499.75;;;14.63;100.00
24486;BME280;13449;49.374;8.584;2023-03-24T04:36:00;99500.72;;;14.50;100.00
24486;BME280;13449;49.374;8.584;2023-03-24T04:38:33;99500.13;;;14.48;100.00
24486;BME280;13449;49.374;8.584;2023-03-24T04:41:02;99496.41;;;14.19;100.00
24486;BME280;13449;49.374;8.584;2023-03-24T04:43:32;99488.81;;;14.22;100.00
24486;BME280;13449;49.374;8.584;2023-03-24T04:46:04;99489.78;;;14.28;100.00
24486;BME280;13449;49.374;8.584;2023-03-24T04:48:32;99485.63;;;14.20;100.00
24486;BME280;13449;49.374;8.584;2023-03-24T04:51:00;99481.94;;;14.21;100.00
24486;BME280;13449;49.374;8.584;2023-03-24T04:53:27;99471.13;;;14.05;100.00
24486;BME280;13449;49.374;8.584;2023-03-24T04:56:05;99482.03;;;14.26;100.00
24486;BME280;13449;49.374;8.584;2023-03-24T04:58:36;99477.97;;;14.12;100.00
24486;BME280;13449;49.374;8.584;2023-03-24T05:01:05;99475.19;;;14.07;100.00
24486;BME280;13449;49.374;8.584;2023-03-24T05:03:31;99483.16;;;14.19;100.00
24486;BME280;13449;49.374;8.584;2023-03-24T05:06:03;99485.19;;;13.87;100.00
24486;BME280;13449;49.374;8.584;2023-03-24T05:08:32;99489.59;;;13.93;100.00
24486;BME280;13449;49.374;8.584;2023-03-24T05:11:01;99491.00;;;13.95;100.00
24486;BME280;13449;49.374;8.584;2023-03-24T05:13:28;99493.19;;;13.80;100.00
24486;BME280;13449;49.374;8.584;2023-03-24T05:15:54;99496.13;;;13.90;100.00
24486;BME280;13449;49.374;8.584;2023-03-24T05:18:24;99493.84;;;13.57;100.00
24486;BME280;13449;49.374;8.584;2023-03-24T05:20:50;99497.16;;;13.71;100.00
24486;BME280;13449;49.374;8.584;2023-03-24T05:23:18;99499.06;;;13.64;100.00
24486;BME280;13449;49.374;8.584;2023-03-24T05:25:46;99503.13;;;13.66;100.00
24486;BME280;13449;49.374;8.584;2023-03-24T05:28:13;99513.97;;;13.58;100.00
24486;BME280;13449;49.374;8.584;2023-03-24T05:30:39;99515.38;;;13.61;100.00
24486;BME280;13449;49.374;8.584;2023-03-24T05:33:06;99520.66;;;13.61;100.00
24486;BME280;13449;49.374;8.584;2023-03-24T05:35:32;99529.72;;;13.71;100.00
24486;BME280;13449;49.374;8.584;2023-03-24T05:37:59;99524.78;;;13.56;100.00
24486;BME280;13449;49.374;8.584;2023-03-24T05:40:27;99526.19;;;13.59;100.00
24486;BME280;13449;49.374;8.584;2023-03-24T05:42:54;99524.41;;;13.53;100.00
24486;BME280;13449;49.374;8.584;2023-03-24T05:45:21;99526.63;;;13.56;100.00
24486;BME280;13449;49.374;8.584;2023-03-24T05:47:50;99520.72;;;13.54;100.00
24486;BME280;13449;49.374;8.584;2023-03-24T05:50:17;99526.03;;;13.54;100.00
24486;BME280;13449;49.374;8.584;2023-03-24T05:52:43;99525.47;;;13.52;100.00
24486;BME280;13449;49.374;8.584;2023-03-24T05:55:10;99527.94;;;13.47;100.00
24486;BME280;13449;49.374;8.584;2023-03-24T05:57:39;99520.19;;;13.45;100.00
24486;BME280;13449;49.374;8.584;2023-03-24T06:00:07;99511.63;;;13.50;100.00
24486;BME280;13449;49.374;8.584;2023-03-24T06:02:36;99511.56;;;13.56;100.00
24486;BME280;13449;49.374;8.584;2023-03-24T06:05:03;99514.41;;;13.55;100.00
24486;BME280;13449;49.374;8.584;2023-03-24T06:07:30;99501.91;;;13.44;100.00
24486;BME280;13449;49.374;8.584;2023-03-24T06:09:57;99507.50;;;13.54;100.00
24486;BME280;13449;49.374;8.584;2023-03-24T06:12:28;99504.44;;;13.57;100.00
24486;BME280;13449;49.374;8.584;2023-03-24T06:14:56;99502.59;;;13.57;100.00
24486;BME280;13449;49.374;8.584;2023-03-24T06:17:23;99501.88;;;13.69;100.00
24486;BME280;13449;49.374;8.584;2023-03-24T06:19:50;99510.56;;;13.76;100.00
24486;BME280;13449;49.374;8.584;2023-03-24T06:22:17;99499.50;;;14.16;100.00
24486;BME280;13449;49.374;8.584;2023-03-24T06:24:45;99512.91;;;14.21;100.00
24486;BME280;13449;49.374;8.584;2023-03-24T06:27:15;99510.81;;;14.23;100.00
24486;BME280;13449;49.374;8.584;2023-03-24T06:29:44;99512.09;;;14.20;100.00
24486;BME280;13449;49.374;8.584;2023-03-24T06:32:10;99514.34;;;14.17;100.00
24486;BME280;13449;49.374;8.584;2023-03-24T06:34:39;99511.81;;;13.92;100.00
24486;BME280;13449;49.374;8.584;2023-03-24T06:37:06;99507.53;;;14.09;100.00
24486;BME280;13449;49.374;8.584;2023-03-24T06:39:32;99516.44;;;14.15;100.00
24486;BME280;13449;49.374;8.584;2023-03-24T06:42:01;99517.00;;;14.17;100.00
24486;BME280;13449;49.374;8.584;2023-03-24T06:44:28;99520.25;;;14.19;100.00
24486;BME280;13449;49.374;8.584;2023-03-24T06:46:54;99527.06;;;14.26;100.00
24486;BME280;13449;49.374;8.584;2023-03-24T06:49:21;99523.13;;;14.17;100.00
24486;BME280;13449;49.374;8.584;2023-03-24T06:51:47;99514.59;;;14.15;100.00
24486;BME280;13449;49.374;8.584;2023-03-24T06:54:16;99531.84;;;14.36;100.00
24486;BME280;13449;49.374;8.584;2023-03-24T06:56:45;99528.75;;;14.39;100.00
24486;BME280;13449;49.374;8.584;2023-03-24T06:59:11;99544.75;;;14.51;100.00
24486;BME280;13449;49.374;8.584;2023-03-24T07:01:38;99543.56;;;14.47;100.00
24486;BME280;13449;49.374;8.584;2023-03-24T07:04:08;99540.47;;;14.32;100.00
24486;BME280;13449;49.374;8.584;2023-03-24T07:06:34;99540.63;;;14.37;100.00
24486;BME280;13449;49.374;8.584;2023-03-24T07:09:12;99556.38;;;14.32;100.00
24486;BME280;13449;49.374;8.584;2023-03-24T07:11:39;99554.72;;;14.49;100.00
24486;BME280;13449;49.374;8.584;2023-03-24T07:14:08;99569.34;;;14.40;100.00
24486;BME280;13449;49.374;8.584;2023-03-24T07:16:35;99564.75;;;14.47;100.00
24486;BME280;13449;49.374;8.584;2023-03-24T07:19:01;99563.00;;;14.59;100.00
24486;BME280;13449;49.374;8.584;2023-03-24T07:21:30;99563.59;;;14.43;100.00
24486;BME280;13449;49.374;8.584;2023-03-24T07:23:56;99563.66;;;14.36;100.00
24486;BME280;13449;49.374;8.584;2023-03-24T07:26:27;99567.41;;;14.29;100.00
24486;BME280;13449;49.374;8.584;2023-03-24T07:28:56;99567.34;;;14.35;100.00
24486;BME280;13449;49.374;8.584;2023-03-24T07:31:25;99558.00;;;14.51;100.00
24486;BME280;13449;49.374;8.584;2023-03-24T07:33:54;99559.53;;;14.59;100.00
24486;BME280;13449;49.374;8.584;2023-03-24T07:36:29;99547.09;;;14.59;100.00
24486;BME280;13449;49.374;8.584;2023-03-24T07:38:56;99553.56;;;14.63;100.00
24486;BME280;13449;49.374;8.584;2023-03-24T07:41:23;99550.47;;;14.66;100.00
24486;BME280;13449;49.374;8.584;2023-03-24T07:43:52;99552.50;;;14.83;100.00
24486;BME280;13449;49.374;8.584;2023-03-24T07:46:19;99547.94;;;14.71;100.00
24486;BME280;13449;49.374;8.584;2023-03-24T07:48:45;99545.56;;;14.82;100.00
24486;BME280;13449;49.374;8.584;2023-03-24T07:51:15;99542.78;;;14.77;100.00
24486;BME280;13449;49.374;8.584;2023-03-24T07:53:50;99551.47;;;14.65;100.00
24486;BME280;13449;49.374;8.584;2023-03-24T07:56:19;99543.25;;;14.55;100.00
24486;BME280;13449;49.374;8.584;2023-03-24T07:58:46;99545.34;;;14.35;100.00
24486;BME280;13449;49.374;8.584;2023-03-24T08:01:12;99552.69;;;14.51;100.00
24486;BME280;13449;49.374;8.584;2023-03-24T08:03:39;99553.66;;;14.38;100.00
24486;BME280;13449;49.374;8.584;2023-03-24T08:06:07;99555.34;;;14.33;100.00
24486;BME280;13449;49.374;8.584;2023-03-24T08:08:37;99557.53;;;14.36;100.00
24486;BME280;13449;49.374;8.584;2023-03-24T08:11:03;99548.94;;;14.40;100.00
24486;BME280;13449;49.374;8.584;2023-03-24T08:13:30;99547.22;;;14.64;100.00
24486;BME280;13449;49.374;8.584;2023-03-24T08:15:59;99550.66;;;14.53;100.00
24486;BME280;13449;49.374;8.584;2023-03-24T08:18:26;99551.19;;;14.73;100.00
24486;BME280;13449;49.374;8.584;2023-03-24T08:20:55;99551.28;;;14.67;100.00
24486;BME280;13449;49.374;8.584;2023-03-24T08:23:24;99560.00;;;14.86;100.00
24486;BME280;13449;49.374;8.584;2023-03-24T08:25:50;99554.72;;;14.67;100.00
24486;BME280;13449;49.374;8.584;2023-03-24T08:28:17;99567.31;;;14.72;100.00
24486;BME280;13449;49.374;8.584;2023-03-24T08:30:44;99560.91;;;14.80;100.00
24486;BME280;13449;49.374;8.584;2023-03-24T08:33:14;99571.34;;;14.75;100.00
24486;BME280;13449;49.374;8.584;2023-03-24T08:35:44;99549.97;;;14.88;100.00
24486;BME280;13449;49.374;8.584;2023-03-24T08:38:13;99558.00;;;14.81;100.00
24486;BME280;13449;49.374;8.584;2023-03-24T08:40:44;99562.66;;;14.86;100.00
24486;BME280;13449;49.374;8.584;2023-03-24T08:43:14;99561.56;;;14.75;100.00
24486;BME280;13449;49.374;8.584;2023-03-24T08:45:41;99577.84;;;14.79;100.00
24486;BME280;13449;49.374;8.584;2023-03-24T08:48:08;99576.78;;;15.10;100.00
24486;BME280;13449;49.374;8.584;2023-03-24T08:50:40;99562.47;;;14.99;100.00
24486;BME280;13449;49.374;8.584;2023-03-24T08:53:08;99569.91;;;14.90;100.00
24486;BME280;13449;49.374;8.584;2023-03-24T08:55:38;99568.31;;;15.01;100.00
24486;BME280;13449;49.374;8.584;2023-03-24T08:58:18;99575.63;;;15.06;100.00
24486;BME280;13449;49.374;8.584;2023-03-24T09:00:47;99567.72;;;14.87;100.00
24486;BME280;13449;49.374;8.584;2023-03-24T09:03:16;99567.47;;;15.19;100.00
24486;BME280;13449;49.374;8.584;2023-03-24T09:05:48;99563.44;;;15.40;100.00
24486;BME280;13449;49.374;8.584;2023-03-24T09:08:17;99567.47;;;15.19;100.00
24486;BME280;13449;49.374;8.584;2023-03-24T09:10:44;99570.03;;;15.37;100.00
24486;BME280;13449;49.374;8.584;2023-03-24T09:13:13;99574.03;;;15.16;100.00
24486;BME280;13449;49.374;8.584;2023-03-24T09:15:52;99566.34;;;15.38;100.00
24486;BME280;13449;49.374;8.584;2023-03-24T09:18:20;99567.59;;;15.24;100.00
24486;BME280;13449;49.374;8.584;2023-03-24T09:20:47;99565.69;;;14.71;100.00
24486;BME280;13449;49.374;8.584;2023-03-24T09:23:18;99569.47;;;14.93;100.00
24486;BME280;13449;49.374;8.584;2023-03-24T09:25:44;99573.16;;;14.92;100.00
24486;BME280;13449;49.374;8.584;2023-03-24T09:28:13;99572.91;;;14.82;100.00
24486;BME280;13449;49.374;8.584;2023-03-24T09:30:42;99578.28;;;14.76;100.00
24486;BME280;13449;49.374;8.584;2023-03-24T09:33:09;99569.91;;;14.90;100.00
24486;BME280;13449;49.374;8.584;2023-03-24T09:35:36;99574.66;;;14.88;100.00
24486;BME280;13449;49.374;8.584;2023-03-24T09:38:02;99572.47;;;14.97;100.00
24486;BME280;13449;49.374;8.584;2023-03-24T09:40:35;99565.31;;;14.98;100.00
24486;BME280;13449;49.374;8.584;2023-03-24T09:43:11;99574.97;;;14.80;100.00
24486;BME280;13449;49.374;8.584;2023-03-24T09:45:48;99557.53;;;14.72;100.00
24486;BME280;13449;49.374;8.584;2023-03-24T09:48:36;99555.81;;;14.78;100.00
24486;BME280;13449;49.374;8.584;2023-03-24T09:53:52;99569.66;;;14.80;100.00
24486;BME280;13449;49.374;8.584;2023-03-24T09:56:21;99578.59;;;14.67;100.00
24486;BME280;13449;49.374;8.584;2023-03-24T09:59:02;99577.75;;;14.85;100.00
24486;BME280;13449;49.374;8.584;2023-03-24T10:01:30;99577.31;;;14.88;100.00
24486;BME280;13449;49.374;8.584;2023-03-24T10:03:58;99583.63;;;14.87;100.00
24486;BME280;13449;49.374;8.584;2023-03-24T10:06:30;99583.66;;;14.99;100.00
24486;BME280;13449;49.374;8.584;2023-03-24T10:14:16;99591.75;;;14.74;100.00
24486;BME280;13449;49.374;8.584;2023-03-24T10:16:53;99587.84;;;14.77;100.00
24486;BME280;13449;49.374;8.584;2023-03-24T10:22:29;99601.44;;;15.10;100.00
24486;BME280;13449;49.374;8.584;2023-03-24T10:25:14;99606.75;;;14.99;100.00
24486;BME280;13449;49.374;8.584;2023-03-24T10:27:57;99609.19;;;15.12;100.00
24486;BME280;13449;49.374;8.584;2023-03-24T10:30:31;99607.47;;;15.17;100.00
24486;BME280;13449;49.374;8.584;2023-03-24T10:33:04;99604.00;;;15.05;100.00
24486;BME280;13449;49.374;8.584;2023-03-24T10:36:20;99600.34;;;14.88;100.00
24486;BME280;13449;49.374;8.584;2023-03-24T10:38:27;99609.19;;;15.12;100.00
24486;BME280;13449;49.374;8.584;2023-03-24T10:40:56;99623.56;;;15.34;100.00
24486;BME280;13449;49.374;8.584;2023-03-24T10:43:25;99619.72;;;15.18;100.00
24486;BME280;13449;49.374;8.584;2023-03-24T10:45:53;99605.00;;;15.34;100.00
24486;BME280;13449;49.374;8.584;2023-03-24T10:48:43;99620.81;;;15.41;100.00
24486;BME280;13449;49.374;8.584;2023-03-24T10:51:20;99621.72;;;15.35;100.00
24486;BME280;13449;49.374;8.584;2023-03-24T10:56:47;99619.06;;;15.47;100.00
24486;BME280;13449;49.374;8.584;2023-03-24T10:59:18;99623.97;;;15.61;100.00
24486;BME280;13449;49.374;8.584;2023-03-24T11:01:48;99627.69;;;15.84;100.00
24486;BME280;13449;49.374;8.584;2023-03-24T11:04:16;99634.28;;;15.70;100.00
24486;BME280;13449;49.374;8.584;2023-03-24T11:07:03;99631.72;;;15.75;100.00
24486;BME280;13449;49.374;8.584;2023-03-24T11:09:38;99634.53;;;15.50;100.00
24486;BME280;13449;49.374;8.584;2023-03-24T11:12:23;99638.72;;;15.57;100.00
24486;BME280;13449;49.374;8.584;2023-03-24T11:14:50;99648.47;;;15.75;100.00
24486;BME280;13449;49.374;8.584;2023-03-24T11:17:19;99651.31;;;15.50;100.00
24486;BME280;13449;49.374;8.584;2023-03-24T11:19:56;99647.31;;;15.29;100.00
24486;BME280;13449;49.374;8.584;2023-03-24T11:22:25;99662.63;;;15.27;100.00
24486;BME280;13449;49.374;8.584;2023-03-24T11:24:55;99664.66;;;14.83;100.00
24486;BME280;13449;49.374;8.584;2023-03-24T11:27:24;99660.25;;;14.59;100.00
24486;BME280;13449;49.374;8.584;2023-03-24T11:29:52;99669.72;;;14.48;100.00
24486;BME280;13449;49.374;8.584;2023-03-24T11:32:26;99670.97;;;14.27;100.00
24486;BME280;13449;49.374;8.584;2023-03-24T11:35:07;99672.66;;;14.40;100.00
24486;BME280;13449;49.374;8.584;2023-03-24T11:37:45;99683.53;;;14.32;100.00
24486;BME280;13449;49.374;8.584;2023-03-24T11:42:44;99672.44;;;14.41;100.00
24486;BME280;13449;49.374;8.584;2023-03-24T11:47:49;99667.75;;;14.62;100.00
24486;BME280;13449;49.374;8.584;2023-03-24T11:50:22;99670.03;;;14.58;100.00
24486;BME280;13449;49.374;8.584;2023-03-24T11:52:51;99663.81;;;14.46;100.00
24486;BME280;13449;49.374;8.584;2023-03-24T11:55:46;99658.72;;;14.51;100.00
24486;BME280;13449;49.374;8.584;2023-03-24T12:01:29;99655.66;;;14.47;100.00
24486;BME280;13449;49.374;8.584;2023-03-24T12:12:58;99657.00;;;14.75;100.00
24486;BME280;13449;49.374;8.584;2023-03-24T12:15:34;99661.94;;;14.71;100.00
24486;BME280;13449;49.374;8.584;2023-03-24T12:26:33;99656.78;;;14.40;100.00
24486;BME280;13449;49.374;8.584;2023-03-24T12:43:54;99645.13;;;15.80;100.00
24486;BME280;13449;49.374;8.584;2023-03-24T12:46:58;99655.88;;;15.85;100.00
24486;BME280;13449;49.374;8.584;2023-03-24T12:49:41;99652.66;;;16.06;100.00
24486;BME280;13449;49.374;8.584;2023-03-24T12:55:20;99645.13;;;16.27;100.00
24486;BME280;13449;49.374;8.584;2023-03-24T12:57:56;99648.59;;;16.04;100.00
24486;BME280;13449;49.374;8.584;2023-03-24T13:00:29;99640.63;;;16.04;100.00
24486;BME280;13449;49.374;8.584;2023-03-24T13:03:04;99643.97;;;15.87;100.00
24486;BME280;13449;49.374;8.584;2023-03-24T13:05:35;99650.44;;;15.92;100.00
24486;BME280;13449;49.374;8.584;2023-03-24T13:08:11;99644.84;;;15.58;100.00
24486;BME280;13449;49.374;8.584;2023-03-24T13:10:42;99643.63;;;15.84;100.00
24486;BME280;13449;49.374;8.584;2023-03-24T13:13:14;99641.66;;;15.91;100.00
24486;BME280;13449;49.374;8.584;2023-03-24T13:15:54;99646.97;;;15.79;100.00
24486;BME280;13449;49.374;8.584;2023-03-24T13:21:20;99638.03;;;16.44;100.00
24486;BME280;13449;49.374;8.584;2023-03-24T13:24:01;99642.59;;;16.32;100.00
24486;BME280;13449;49.374;8.584;2023-03-24T13:26:59;99656.69;;;16.32;100.00
24486;BME280;13449;49.374;8.584;2023-03-24T13:35:12;99639.03;;;15.37;100.00
24486;BME280;13449;49.374;8.584;2023-03-24T13:37:50;99641.03;;;15.12;100.00
24486;BME280;13449;49.374;8.584;2023-03-24T13:40:25;99650.50;;;15.19;100.00
24486;BME280;13449;49.374;8.584;2023-03-24T13:42:56;99646.69;;;15.57;100.00
24486;BME280;13449;49.374;8.584;2023-03-24T13:50:26;99641.28;;;15.22;100.00
24486;BME280;13449;49.374;8.584;2023-03-24T13:53:03;99630.69;;;15.34;100.00
24486;BME280;13449;49.374;8.584;2023-03-24T13:55:35;99627.13;;;15.28;100.00
24486;BME280;13449;49.374;8.584;2023-03-24T13:58:07;99623.81;;;15.56;100.00
24486;BME280;13449;49.374;8.584;2023-03-24T14:03:38;99619.63;;;16.02;100.00
24486;BME280;13449;49.374;8.584;2023-03-24T14:06:09;99625.84;;;15.84;100.00
24486;BME280;13449;49.374;8.584;2023-03-24T14:17:09;99624.56;;;15.75;100.00
24486;BME280;13449;49.374;8.584;2023-03-24T14:22:12;99618.69;;;15.73;100.00
24486;BME280;13449;49.374;8.584;2023-03-24T14:24:44;99621.16;;;15.56;100.00
24486;BME280;13449;49.374;8.584;2023-03-24T14:27:25;99628.38;;;15.68;100.00
24486;BME280;13449;49.374;8.584;2023-03-24T14:30:03;99627.25;;;15.87;100.00
24486;BME280;13449;49.374;8.584;2023-03-24T14:32:37;99627.00;;;15.77;100.00
24486;BME280;13449;49.374;8.584;2023-03-24T14:35:39;99629.78;;;15.82;100.00
24486;BME280;13449;49.374;8.584;2023-03-24T14:38:20;99616.84;;;15.74;100.00
24486;BME280;13449;49.374;8.584;2023-03-24T14:40:49;99614.47;;;15.65;100.00
24486;BME280;13449;49.374;8.584;2023-03-24T14:51:40;99623.16;;;15.61;100.00
24486;BME280;13449;49.374;8.584;2023-03-24T14:54:15;99630.00;;;15.69;100.00
24486;BME280;13449;49.374;8.584;2023-03-24T14:56:43;99621.06;;;15.51;100.00
24486;BME280;13449;49.374;8.584;2023-03-24T14:59:28;99615.91;;;15.26;100.00
24486;BME280;13449;49.374;8.584;2023-03-24T15:02:15;99619.72;;;15.18;100.00
24486;BME280;13449;49.374;8.584;2023-03-24T15:10:57;99622.56;;;15.17;100.00
24486;BME280;13449;49.374;8.584;2023-03-24T15:16:02;99604.91;;;15.11;100.00
24486;BME280;13449;49.374;8.584;2023-03-24T15:18:29;99601.91;;;15.07;100.00
24486;BME280;13449;49.374;8.584;2023-03-24T15:20:56;99605.41;;;15.19;100.00
24486;BME280;13449;49.374;8.584;2023-03-24T15:23:26;99597.13;;;15.28;100.00
24486;BME280;13449;49.374;8.584;2023-03-24T15:25:56;99598.28;;;15.32;100.00
24486;BME280;13449;49.374;8.584;2023-03-24T15:28:27;99606.81;;;15.34;100.00
24486;BME280;13449;49.374;8.584;2023-03-24T15:30:56;99607.69;;;15.58;100.00
24486;BME280;13449;49.374;8.584;2023-03-24T15:33:25;99608.03;;;15.61;100.00
24486;BME280;13449;49.374;8.584;2023-03-24T15:35:56;99603.16;;;15.47;100.00
24486;BME280;13449;49.374;8.584;2023-03-24T15:38:31;99605.84;;;15.16;100.00
24486;BME280;13449;49.374;8.584;2023-03-24T15:41:08;99603.91;;;15.12;100.00
24486;BME280;13449;49.374;8.584;2023-03-24T15:43:46;99593.03;;;15.02;100.00